Time;durP1;ratioP1;P1;durP2;ratioP2;P2;SDS_P1;SDS_P2;PMS_P1;PMS_P2;Temp;Humidity;BMP_temperature;BMP_pressure;BME280_temperature;BME280_humidity;BME280_pressure;Samples;Min_cycle;Max_cycle;Signal;HPM_P1;HPM_P2
2022/08/09 00:01:00;;;;;;;2.40;2.30;;;19.10;59.70;;;;;;5077098;28;20826;-80
2022/08/09 00:03:27;;;;;;;2.07;1.97;;;19.10;59.70;;;;;;5077722;28;20462;-80
2022/08/09 00:05:53;;;;;;;2.43;2.23;;;19.10;59.70;;;;;;5076869;28;20461;-81
2022/08/09 00:08:20;;;;;;;2.40;2.30;;;19.00;59.50;;;;;;5076872;28;20566;-81
2022/08/09 00:10:47;;;;;;;3.43;3.13;;;19.00;59.80;;;;;;5077520;28;20493;-80
2022/08/09 00:13:14;;;;;;;2.50;2.40;;;18.90;60.60;;;;;;5077444;28;20455;-81
2022/08/09 00:15:41;;;;;;;3.20;2.43;;;18.90;60.40;;;;;;5076784;28;20447;-81
2022/08/09 00:18:09;;;;;;;2.80;2.30;;;18.90;60.60;;;;;;5077222;28;20479;-81
2022/08/09 00:20:36;;;;;;;2.23;2.13;;;18.90;61.10;;;;;;5077044;28;20447;-81
2022/08/09 00:23:03;;;;;;;1.87;1.77;;;18.80;60.90;;;;;;5077696;28;20458;-81
2022/08/09 00:25:29;;;;;;;2.40;2.30;;;18.80;61.30;;;;;;5077560;28;20455;-80
2022/08/09 00:27:56;;;;;;;2.77;2.57;;;18.70;62.00;;;;;;5077475;28;20478;-81
2022/08/09 00:30:23;;;;;;;2.23;2.07;;;18.70;62.10;;;;;;5077219;28;20474;-81
2022/08/09 00:32:49;;;;;;;2.27;2.17;;;18.60;61.90;;;;;;5076993;28;20454;-80
2022/08/09 00:35:17;;;;;;;2.73;2.53;;;18.60;62.60;;;;;;5077345;28;20455;-81
2022/08/09 00:37:44;;;;;;;2.90;2.70;;;18.60;62.80;;;;;;5076398;28;20983;-81
2022/08/09 00:40:12;;;;;;;2.97;2.77;;;18.60;63.10;;;;;;5077754;28;20450;-81
2022/08/09 00:42:39;;;;;;;2.57;2.37;;;18.50;63.00;;;;;;5076504;28;20508;-81
2022/08/09 00:45:06;;;;;;;3.10;2.27;;;18.50;63.50;;;;;;5076255;28;20458;-79
2022/08/09 00:47:33;;;;;;;3.60;2.40;;;18.50;64.00;;;;;;5076454;28;20980;-81
2022/08/09 00:50:00;;;;;;;3.13;2.40;;;18.40;64.30;;;;;;5076949;28;20559;-81
2022/08/09 00:52:29;;;;;;;3.30;3.10;;;18.20;64.60;;;;;;5076664;28;20451;-81
2022/08/09 00:54:56;;;;;;;2.83;2.60;;;18.20;65.20;;;;;;5076439;28;20477;-80
2022/08/09 00:57:23;;;;;;;2.80;2.60;;;18.10;65.80;;;;;;5076085;28;21010;-81
2022/08/09 00:59:50;;;;;;;2.40;2.30;;;18.00;66.50;;;;;;5076905;28;20446;-79
2022/08/09 01:02:20;;;;;;;2.53;2.33;;;18.00;66.60;;;;;;5076819;28;20447;-81
2022/08/09 01:04:53;;;;;;;3.40;2.73;;;18.00;65.70;;;;;;5076347;28;20474;-81
2022/08/09 01:07:26;;;;;;;2.63;2.43;;;18.10;65.70;;;;;;5076573;28;20867;-81
2022/08/09 01:10:02;;;;;;;2.50;2.40;;;18.10;65.90;;;;;;5060630;28;20454;-81
2022/08/09 01:12:38;;;;;;;3.33;3.13;;;18.10;65.80;;;;;;5065226;28;20446;-80
2022/08/09 01:15:07;;;;;;;3.73;3.50;;;18.10;66.30;;;;;;5076563;28;20461;-81
2022/08/09 01:17:38;;;;;;;3.07;2.80;;;18.10;67.30;;;;;;5075772;28;20481;-81
2022/08/09 01:20:09;;;;;;;2.43;2.33;;;18.10;68.30;;;;;;5076849;28;20444;-81
2022/08/09 01:23:07;;;;;;;3.67;2.57;;;18.10;69.40;;;;;;5076290;28;20446;-81
2022/08/09 01:26:01;;;;;;;2.10;2.00;;;18.10;69.70;;;;;;5076382;28;20453;-81
2022/08/09 01:28:31;;;;;;;2.77;2.67;;;18.10;69.40;;;;;;5076205;28;20470;-81
2022/08/09 01:31:00;;;;;;;2.90;2.70;;;18.10;69.10;;;;;;5075733;28;20854;-81
2022/08/09 01:33:32;;;;;;;3.07;2.80;;;18.00;68.90;;;;;;5075912;28;20447;-81
2022/08/09 01:36:03;;;;;;;3.00;2.80;;;18.00;69.40;;;;;;5075923;28;20453;-79
2022/08/09 01:38:36;;;;;;;3.40;3.20;;;17.90;69.80;;;;;;5075996;28;20545;-81
2022/08/09 01:41:12;;;;;;;3.10;2.90;;;17.90;71.20;;;;;;5075781;28;20451;-81
2022/08/09 01:43:45;;;;;;;3.73;3.53;;;17.90;71.20;;;;;;5075825;28;20458;-81
2022/08/09 01:46:14;;;;;;;2.70;2.50;;;17.80;71.50;;;;;;5075494;28;20971;-81
2022/08/09 01:48:42;;;;;;;2.57;2.40;;;17.80;71.60;;;;;;5075736;28;20464;-81
2022/08/09 01:51:10;;;;;;;2.67;2.57;;;17.70;72.40;;;;;;5065146;28;20884;-79
2022/08/09 01:53:38;;;;;;;3.33;3.13;;;17.70;73.20;;;;;;5077102;28;20796;-80
2022/08/09 01:56:07;;;;;;;3.37;3.17;;;17.70;73.50;;;;;;5079300;28;20853;-80
2022/08/09 01:58:35;;;;;;;2.80;2.63;;;17.70;73.70;;;;;;5079132;28;20484;-80
2022/08/09 02:01:05;;;;;;;3.20;2.83;;;17.70;73.80;;;;;;5078037;28;20455;-80
2022/08/09 02:03:35;;;;;;;3.27;3.00;;;17.70;73.60;;;;;;5079081;28;20457;-78
2022/08/09 02:06:04;;;;;;;3.07;2.87;;;17.70;73.90;;;;;;5079152;28;20454;-79
2022/08/09 02:08:32;;;;;;;3.37;3.07;;;17.70;74.40;;;;;;5079118;28;20482;-80
2022/08/09 02:11:02;;;;;;;2.80;2.60;;;17.60;75.20;;;;;;5079652;28;21038;-80
2022/08/09 02:13:31;;;;;;;2.83;2.63;;;17.60;75.70;;;;;;5079047;28;20462;-80
2022/08/09 02:15:59;;;;;;;3.60;2.63;;;17.60;76.00;;;;;;5079156;28;20454;-79
2022/08/09 02:18:30;;;;;;;3.23;3.03;;;17.60;76.70;;;;;;5075894;28;20473;-79
2022/08/09 02:21:01;;;;;;;3.30;3.10;;;17.60;77.40;;;;;;5076184;28;20449;-79
2022/08/09 02:23:33;;;;;;;3.30;3.10;;;17.50;77.20;;;;;;5075437;28;20957;-78
2022/08/09 02:26:02;;;;;;;3.07;2.87;;;17.50;77.60;;;;;;5055712;28;20794;-80
2022/08/09 02:28:34;;;;;;;3.53;3.23;;;17.50;77.80;;;;;;5071374;28;20474;-81
2022/08/09 02:31:04;;;;;;;3.07;2.90;;;17.50;78.50;;;;;;5079675;28;20581;-80
2022/08/09 02:33:36;;;;;;;3.17;2.80;;;17.50;78.90;;;;;;5079084;28;20458;-80
2022/08/09 02:36:07;;;;;;;3.50;3.27;;;17.40;79.40;;;;;;5079707;28;20450;-81
2022/08/09 02:38:41;;;;;;;3.50;3.30;;;17.40;79.90;;;;;;5078923;28;20481;-81
2022/08/09 02:41:10;;;;;;;3.40;3.20;;;17.40;81.00;;;;;;5079707;28;20453;-81
2022/08/09 02:43:39;;;;;;;2.77;2.63;;;17.30;81.90;;;;;;5079240;28;20474;-81
2022/08/09 02:46:09;;;;;;;5.17;3.33;;;17.30;82.70;;;;;;5079222;28;20457;-81
2022/08/09 02:48:38;;;;;;;3.50;3.30;;;17.30;83.20;;;;;;5078997;28;20983;-81
2022/08/09 02:51:10;;;;;;;3.70;3.47;;;17.10;83.90;;;;;;5079044;28;20478;-81
2022/08/09 02:53:41;;;;;;;3.27;2.97;;;17.00;84.70;;;;;;5079090;28;20450;-79
2022/08/09 02:56:10;;;;;;;3.03;2.90;;;17.00;85.30;;;;;;5078656;28;20454;-81
2022/08/09 02:58:39;;;;;;;3.63;3.40;;;17.10;85.30;;;;;;5079012;28;20847;-82
2022/08/09 03:01:07;;;;;;;3.20;3.00;;;17.10;85.70;;;;;;5079041;28;20996;-81
2022/08/09 03:03:35;;;;;;;3.53;3.33;;;17.00;86.70;;;;;;5078276;28;20455;-81
2022/08/09 03:06:06;;;;;;;3.97;3.70;;;17.00;87.20;;;;;;5075277;28;20453;-81
2022/08/09 03:08:34;;;;;;;3.20;2.90;;;17.00;87.70;;;;;;5078742;28;20474;-81
2022/08/09 03:11:01;;;;;;;3.17;2.97;;;17.00;88.40;;;;;;5078709;28;20857;-81
2022/08/09 03:13:29;;;;;;;3.80;3.50;;;17.00;88.70;;;;;;5079156;28;20454;-81
2022/08/09 03:15:57;;;;;;;3.40;3.20;;;17.00;89.10;;;;;;5079202;28;20459;-81
2022/08/09 03:18:24;;;;;;;3.50;3.30;;;17.00;89.20;;;;;;5078456;28;20492;-81
2022/08/09 03:20:51;;;;;;;2.77;2.67;;;17.00;88.60;;;;;;5078298;28;20457;-81
2022/08/09 03:23:20;;;;;;;2.80;2.60;;;16.90;88.00;;;;;;5078860;28;20462;-81
2022/08/09 03:25:49;;;;;;;3.97;3.53;;;16.90;88.20;;;;;;5078310;28;20457;-81
2022/08/09 03:28:17;;;;;;;2.83;2.63;;;16.90;88.40;;;;;;5077802;28;20478;-79
2022/08/09 03:30:45;;;;;;;3.20;3.00;;;16.90;88.40;;;;;;5074806;28;20454;-80
2022/08/09 03:33:13;;;;;;;2.73;2.53;;;16.90;88.80;;;;;;5074788;28;20455;-78
2022/08/09 03:35:41;;;;;;;3.37;3.07;;;16.80;89.10;;;;;;5074383;28;20460;-79
2022/08/09 03:38:07;;;;;;;3.83;3.23;;;16.80;89.40;;;;;;5074148;28;20473;-78
2022/08/09 03:40:36;;;;;;;3.57;3.27;;;16.70;90.00;;;;;;5073723;28;20461;-78
2022/08/09 03:43:02;;;;;;;3.20;3.00;;;16.60;90.20;;;;;;5073945;28;20451;-78
2022/08/09 03:45:29;;;;;;;3.00;2.80;;;16.70;90.50;;;;;;5073499;28;20463;-78
2022/08/09 03:47:56;;;;;;;3.27;2.97;;;16.70;90.50;;;;;;5073295;28;20998;-78
2022/08/09 03:50:26;;;;;;;2.47;2.37;;;16.70;90.50;;;;;;5073638;28;20450;-78
2022/08/09 03:52:54;;;;;;;3.90;3.60;;;16.70;90.60;;;;;;5073005;28;20481;-78
2022/08/09 03:55:21;;;;;;;3.80;3.60;;;16.70;90.80;;;;;;5073140;28;20454;-78
2022/08/09 03:57:50;;;;;;;3.80;3.40;;;16.70;91.20;;;;;;5073314;28;20471;-79
2022/08/09 04:00:17;;;;;;;3.10;3.00;;;16.70;91.50;;;;;;5073458;28;20575;-79
2022/08/09 04:02:44;;;;;;;3.70;3.50;;;16.70;91.80;;;;;;5073203;28;20447;-78
2022/08/09 04:05:12;;;;;;;3.43;3.23;;;16.70;91.60;;;;;;5073236;28;20490;-78
2022/08/09 04:07:39;;;;;;;4.00;3.70;;;16.60;91.60;;;;;;5073111;28;20483;-78
2022/08/09 04:10:07;;;;;;;3.53;3.33;;;16.60;91.90;;;;;;5073122;28;20955;-78
2022/08/09 04:12:42;;;;;;;3.73;3.50;;;16.60;91.90;;;;;;5072921;28;20485;-78
2022/08/09 04:15:11;;;;;;;3.77;3.47;;;16.60;92.00;;;;;;5072577;28;20454;-78
2022/08/09 04:17:39;;;;;;;3.50;3.30;;;16.60;92.30;;;;;;5072399;28;20847;-78
2022/08/09 04:20:07;;;;;;;5.37;3.67;;;16.60;92.50;;;;;;5072719;28;20943;-78
2022/08/09 04:22:34;;;;;;;4.57;4.23;;;16.60;93.00;;;;;;5073078;28;20442;-78
2022/08/09 04:25:00;;;;;;;4.27;3.70;;;16.70;93.40;;;;;;5072535;28;20454;-78
2022/08/09 04:27:28;;;;;;;4.07;3.77;;;16.70;93.30;;;;;;5072795;28;20470;-78
2022/08/09 04:29:54;;;;;;;3.90;3.70;;;16.70;93.60;;;;;;5072546;28;20449;-78
2022/08/09 04:32:22;;;;;;;3.40;3.13;;;16.70;94.10;;;;;;5072648;28;20474;-78
2022/08/09 04:34:50;;;;;;;3.40;3.20;;;16.70;94.20;;;;;;5072562;28;20460;-79
2022/08/09 04:37:16;;;;;;;3.30;3.10;;;16.70;94.10;;;;;;5072690;28;20900;-78
2022/08/09 04:39:43;;;;;;;3.60;3.27;;;16.70;93.90;;;;;;5072737;28;20457;-79
2022/08/09 04:42:10;;;;;;;3.53;3.33;;;16.70;94.20;;;;;;5072587;28;20456;-78
2022/08/09 04:44:37;;;;;;;4.10;3.67;;;16.70;94.30;;;;;;5072290;28;20452;-78
2022/08/09 04:47:04;;;;;;;3.80;3.60;;;16.60;94.40;;;;;;5072345;28;20503;-79
2022/08/09 04:49:36;;;;;;;4.30;3.97;;;16.70;94.50;;;;;;5073603;28;20461;-80
2022/08/09 04:52:03;;;;;;;4.10;3.80;;;16.60;94.50;;;;;;5072320;28;20485;-78
2022/08/09 04:54:30;;;;;;;4.30;4.00;;;16.70;94.80;;;;;;5074381;28;20488;-80
2022/08/09 04:56:57;;;;;;;4.03;3.63;;;16.70;95.20;;;;;;5074962;28;20452;-80
2022/08/09 04:59:23;;;;;;;2.83;2.63;;;16.70;95.60;;;;;;5073273;28;20994;-80
2022/08/09 05:01:50;;;;;;;3.70;3.50;;;16.80;95.80;;;;;;5082468;28;20446;-80
2022/08/09 05:04:17;;;;;;;3.40;3.20;;;16.80;95.70;;;;;;5081214;28;20947;-80
2022/08/09 05:06:46;;;;;;;3.30;3.10;;;16.90;95.60;;;;;;5082189;28;20513;-80
2022/08/09 05:09:13;;;;;;;9.07;5.00;;;16.90;95.20;;;;;;5074725;28;20450;-80
2022/08/09 05:11:39;;;;;;;4.20;3.90;;;16.90;95.20;;;;;;5081759;28;20503;-80
2022/08/09 05:14:06;;;;;;;3.90;3.67;;;16.90;95.20;;;;;;5079215;28;20827;-81
2022/08/09 05:16:36;;;;;;;3.83;3.60;;;17.00;95.10;;;;;;5082479;28;20940;-80
2022/08/09 05:19:03;;;;;;;4.37;3.97;;;17.00;95.10;;;;;;5082316;28;20504;-80
2022/08/09 05:21:30;;;;;;;4.50;4.20;;;17.10;95.20;;;;;;5082739;28;20446;-81
2022/08/09 05:23:59;;;;;;;3.80;3.50;;;17.10;95.30;;;;;;5083166;28;20964;-80
2022/08/09 05:26:25;;;;;;;3.53;3.33;;;17.10;95.00;;;;;;5082927;28;20456;-80
2022/08/09 05:28:52;;;;;;;4.20;3.60;;;17.10;95.00;;;;;;5082320;28;20470;-80
2022/08/09 05:31:19;;;;;;;4.70;4.40;;;17.20;95.00;;;;;;5082846;28;20449;-80
2022/08/09 05:33:45;;;;;;;5.03;4.60;;;17.30;95.00;;;;;;5082308;28;20458;-80
2022/08/09 05:36:12;;;;;;;4.93;4.63;;;17.30;95.20;;;;;;5082761;28;20454;-80
2022/08/09 05:38:39;;;;;;;4.53;4.20;;;17.40;95.10;;;;;;5082177;28;20470;-80
2022/08/09 05:41:07;;;;;;;6.10;5.33;;;17.50;95.30;;;;;;5081514;28;20459;-80
2022/08/09 05:43:35;;;;;;;4.03;3.87;;;17.60;95.40;;;;;;5081963;28;20457;-80
2022/08/09 05:46:02;;;;;;;4.67;4.27;;;17.70;95.80;;;;;;5082363;28;20487;-80
2022/08/09 05:48:29;;;;;;;5.17;4.60;;;17.80;95.50;;;;;;5082121;28;20501;-80
2022/08/09 05:50:55;;;;;;;5.00;4.63;;;17.90;95.20;;;;;;5083377;28;20537;-80
2022/08/09 05:53:22;;;;;;;4.90;4.60;;;18.00;95.30;;;;;;5081948;28;20538;-80
2022/08/09 05:55:49;;;;;;;5.00;4.60;;;18.10;95.30;;;;;;5082241;28;20454;-81
2022/08/09 05:58:17;;;;;;;5.77;5.27;;;18.20;94.80;;;;;;5082833;28;20471;-80
2022/08/09 06:00:44;;;;;;;5.23;4.87;;;18.30;94.70;;;;;;5082366;28;20454;-80
2022/08/09 06:03:11;;;;;;;5.13;4.83;;;18.40;94.60;;;;;;5082916;28;20452;-80
2022/08/09 06:05:38;;;;;;;4.43;4.13;;;18.50;94.40;;;;;;5082057;28;20460;-81
2022/08/09 06:08:05;;;;;;;5.33;4.93;;;18.60;94.20;;;;;;5081378;28;20471;-80
2022/08/09 06:10:37;;;;;;;5.10;4.80;;;18.70;93.90;;;;;;5082021;28;20482;-80
2022/08/09 06:13:05;;;;;;;4.27;4.03;;;18.80;94.10;;;;;;5081546;28;20483;-80
2022/08/09 06:15:33;;;;;;;4.77;4.37;;;18.80;94.10;;;;;;5082081;28;20454;-80
2022/08/09 06:18:00;;;;;;;4.37;4.17;;;18.90;94.10;;;;;;5079271;28;20478;-81
2022/08/09 06:20:27;;;;;;;5.90;5.30;;;19.00;93.80;;;;;;5076816;28;20799;-78
2022/08/09 06:22:54;;;;;;;4.67;4.37;;;19.10;94.10;;;;;;5071466;28;20967;-79
2022/08/09 06:25:21;;;;;;;5.03;4.60;;;19.20;94.00;;;;;;5071669;28;20812;-78
2022/08/09 06:27:48;;;;;;;4.70;4.40;;;19.30;94.40;;;;;;5071553;28;20475;-79
2022/08/09 06:30:15;;;;;;;4.17;3.97;;;19.40;93.90;;;;;;5072463;28;20452;-79
2022/08/09 06:32:44;;;;;;;4.53;4.23;;;19.50;93.80;;;;;;5073392;28;20482;-79
2022/08/09 06:35:13;;;;;;;4.57;4.27;;;19.50;93.70;;;;;;5072737;28;20458;-80
2022/08/09 06:37:40;;;;;;;8.53;5.27;;;19.60;93.60;;;;;;5074389;28;20546;-80
2022/08/09 06:40:08;;;;;;;4.30;4.00;;;19.70;93.10;;;;;;5076150;28;20554;-78
2022/08/09 06:42:35;;;;;;;3.90;3.70;;;19.80;92.80;;;;;;5078007;28;20448;-80
2022/08/09 06:45:02;;;;;;;4.77;4.33;;;19.80;93.20;;;;;;5078906;28;20465;-79
2022/08/09 06:47:29;;;;;;;4.10;3.87;;;19.80;92.80;;;;;;5079164;28;20469;-79
2022/08/09 06:49:57;;;;;;;4.60;4.23;;;20.00;92.90;;;;;;5079752;28;20449;-79
2022/08/09 06:52:24;;;;;;;3.87;3.67;;;20.10;93.40;;;;;;5079548;28;21004;-79
2022/08/09 06:54:50;;;;;;;4.90;4.43;;;20.20;92.60;;;;;;5080948;28;20959;-79
2022/08/09 06:57:17;;;;;;;4.20;4.00;;;20.40;92.20;;;;;;5083050;28;20473;-79
2022/08/09 06:59:45;;;;;;;4.67;4.33;;;20.50;91.90;;;;;;5083110;28;20543;-80
2022/08/09 07:02:11;;;;;;;4.20;3.80;;;20.60;91.60;;;;;;5082446;28;20505;-80
2022/08/09 07:04:38;;;;;;;4.60;4.27;;;20.70;91.40;;;;;;5082083;28;20451;-79
2022/08/09 07:07:07;;;;;;;3.80;3.60;;;20.80;90.80;;;;;;5083604;28;20483;-79
2022/08/09 07:09:34;;;;;;;4.33;4.03;;;20.90;90.60;;;;;;5082627;28;20444;-78
2022/08/09 07:12:00;;;;;;;4.73;4.43;;;20.90;90.10;;;;;;5078865;28;20452;-78
2022/08/09 07:14:27;;;;;;;4.60;4.37;;;21.00;90.10;;;;;;5079233;28;20460;-79
2022/08/09 07:16:54;;;;;;;4.20;3.90;;;21.00;89.60;;;;;;5077536;28;20805;-82
2022/08/09 07:19:20;;;;;;;4.07;3.87;;;21.10;90.50;;;;;;5078111;28;20454;-82
2022/08/09 07:21:48;;;;;;;5.03;4.53;;;21.10;89.30;;;;;;5077240;28;20441;-81
2022/08/09 07:24:16;;;;;;;4.00;3.80;;;21.20;89.10;;;;;;5076888;28;20453;-82
2022/08/09 07:26:42;;;;;;;3.80;3.60;;;21.30;86.80;;;;;;5076925;28;20490;-82
2022/08/09 07:29:09;;;;;;;5.20;4.70;;;21.30;87.30;;;;;;5074506;28;20915;-85
2022/08/09 07:31:37;;;;;;;4.30;3.87;;;21.40;86.40;;;;;;5082969;28;20466;-85
2022/08/09 07:34:04;;;;;;;4.43;4.13;;;21.50;87.10;;;;;;5081836;28;20478;-86
2022/08/09 07:36:31;;;;;;;3.60;3.30;;;21.50;86.50;;;;;;5081264;28;20457;-85
2022/08/09 07:38:58;;;;;;;5.30;4.30;;;21.70;84.80;;;;;;5077352;28;20474;-82
2022/08/09 07:41:26;;;;;;;4.30;4.00;;;21.80;85.10;;;;;;5076696;28;20504;-84
2022/08/09 07:43:53;;;;;;;3.67;3.40;;;21.90;86.50;;;;;;5075908;28;20451;-83
2022/08/09 07:46:20;;;;;;;3.80;3.30;;;21.90;85.40;;;;;;5076907;28;20455;-86
2022/08/09 07:48:46;;;;;;;3.70;3.50;;;22.10;84.00;;;;;;5076131;28;20479;-82
2022/08/09 07:51:13;;;;;;;3.87;3.57;;;22.20;84.60;;;;;;5074021;28;20479;-82
2022/08/09 07:53:40;;;;;;;4.03;3.73;;;22.30;83.60;;;;;;5077046;28;20523;-84
2022/08/09 07:56:07;;;;;;;5.00;4.20;;;22.40;81.60;;;;;;5076342;28;20454;-81
2022/08/09 07:58:35;;;;;;;3.90;3.63;;;22.50;81.90;;;;;;5080251;28;20481;-86
2022/08/09 08:01:02;;;;;;;4.30;4.00;;;22.60;81.80;;;;;;5078158;28;20455;-81
2022/08/09 08:03:29;;;;;;;4.10;3.10;;;22.70;81.80;;;;;;5076882;28;20541;-84
2022/08/09 08:05:56;;;;;;;3.70;3.50;;;22.80;80.20;;;;;;5077019;28;20451;-81
2022/08/09 08:08:23;;;;;;;6.40;3.57;;;22.90;80.70;;;;;;5079211;28;20474;-81
2022/08/09 08:10:50;;;;;;;3.73;3.50;;;23.00;78.30;;;;;;5076274;28;20458;-81
2022/08/09 08:13:17;;;;;;;3.87;3.57;;;23.10;79.30;;;;;;5081971;28;20857;-83
2022/08/09 08:15:45;;;;;;;7.13;5.30;;;23.10;78.50;;;;;;5074147;28;20444;-85
2022/08/09 08:18:12;;;;;;;9.80;5.90;;;23.30;76.30;;;;;;5076568;28;20468;-84
2022/08/09 08:20:39;;;;;;;5.50;5.03;;;23.40;76.20;;;;;;5082501;28;20451;-85
2022/08/09 08:23:07;;;;;;;5.43;4.93;;;23.50;75.50;;;;;;5081663;28;20799;-84
2022/08/09 08:25:34;;;;;;;9.33;5.37;;;23.60;75.10;;;;;;5083961;28;20948;-85
2022/08/09 08:28:01;;;;;;;3.40;3.10;;;23.70;73.40;;;;;;5097160;28;20471;-85
2022/08/09 08:30:28;;;;;;;3.80;3.57;;;23.80;75.20;;;;;;5086983;28;20459;-84
2022/08/09 08:32:56;;;;;;;3.60;3.40;;;23.80;74.00;;;;;;5087447;28;20489;-85
2022/08/09 08:35:23;;;;;;;4.03;3.83;;;24.00;72.30;;;;;;5087010;28;20447;-84
2022/08/09 08:37:50;;;;;;;3.50;3.20;;;24.10;72.30;;;;;;5092297;28;20828;-82
2022/08/09 08:40:17;;;;;;;3.10;2.90;;;24.20;72.10;;;;;;5080511;28;20452;-79
2022/08/09 08:42:44;;;;;;;4.13;3.83;;;24.20;72.40;;;;;;5084510;28;20437;-79
2022/08/09 08:45:11;;;;;;;4.30;4.10;;;24.30;70.90;;;;;;5083821;28;20457;-79
2022/08/09 08:47:39;;;;;;;3.60;3.40;;;24.40;70.80;;;;;;5084562;28;21024;-84
2022/08/09 08:50:09;;;;;;;3.33;3.17;;;24.40;70.40;;;;;;5081749;28;20456;-81
2022/08/09 08:52:35;;;;;;;2.93;2.83;;;24.60;70.70;;;;;;5083655;28;20485;-85
2022/08/09 08:55:02;;;;;;;3.13;2.93;;;24.60;69.40;;;;;;5085473;28;20448;-83
2022/08/09 08:57:29;;;;;;;3.73;3.37;;;24.70;69.30;;;;;;5085409;28;20445;-85
2022/08/09 08:59:56;;;;;;;3.90;3.37;;;24.80;68.30;;;;;;5083117;28;21264;-81
2022/08/09 09:02:25;;;;;;;7.97;5.67;;;25.00;68.20;;;;;;5082422;28;20448;-81
2022/08/09 09:04:53;;;;;;;3.83;3.50;;;25.10;67.10;;;;;;5082410;28;20970;-80
2022/08/09 09:07:23;;;;;;;4.23;3.03;;;25.20;67.40;;;;;;5086579;28;20473;-85
2022/08/09 09:09:51;;;;;;;3.70;3.40;;;25.30;64.50;;;;;;5084179;28;21056;-80
2022/08/09 09:12:21;;;;;;;3.17;2.97;;;25.30;65.10;;;;;;5079928;28;20822;-79
2022/08/09 09:14:49;;;;;;;3.57;3.37;;;25.40;66.80;;;;;;5082499;28;20445;-79
2022/08/09 09:17:16;;;;;;;2.97;2.87;;;25.30;65.60;;;;;;5082677;28;20462;-79
2022/08/09 09:19:43;;;;;;;3.70;3.40;;;25.40;65.30;;;;;;5083651;28;20456;-82
2022/08/09 09:22:12;;;;;;;3.33;3.13;;;25.50;65.60;;;;;;5084713;28;20459;-83
2022/08/09 09:24:44;;;;;;;2.70;2.60;;;25.50;64.40;;;;;;5080391;28;20479;-84
2022/08/09 09:27:14;;;;;;;3.50;3.30;;;25.60;64.90;;;;;;5078577;28;20470;-83
2022/08/09 09:29:43;;;;;;;3.47;3.27;;;25.80;64.30;;;;;;5079489;28;20516;-83
2022/08/09 09:32:11;;;;;;;2.67;2.50;;;25.90;63.50;;;;;;5079219;28;20449;-84
2022/08/09 09:34:38;;;;;;;3.23;2.93;;;26.00;61.20;;;;;;5078485;28;20489;-84
2022/08/09 09:37:06;;;;;;;3.37;3.10;;;26.10;61.70;;;;;;5079686;28;20470;-83
2022/08/09 09:39:33;;;;;;;3.83;3.00;;;26.20;61.30;;;;;;5080148;28;20446;-82
2022/08/09 09:42:04;;;;;;;3.30;3.10;;;26.30;59.10;;;;;;5079613;28;20462;-84
2022/08/09 09:44:34;;;;;;;3.27;3.07;;;26.40;59.40;;;;;;5079417;28;20939;-83
2022/08/09 09:47:10;;;;;;;3.27;2.97;;;26.40;59.50;;;;;;5080190;28;20470;-84
2022/08/09 09:49:38;;;;;;;3.50;3.17;;;26.60;60.30;;;;;;5080337;28;20450;-84
2022/08/09 09:52:07;;;;;;;4.60;3.13;;;26.70;58.90;;;;;;5077725;28;20451;-81
2022/08/09 09:54:37;;;;;;;11.90;5.13;;;26.70;58.60;;;;;;5074439;28;20491;-81
2022/08/09 09:57:15;;;;;;;3.70;3.40;;;26.80;59.90;;;;;;5074120;28;20476;-81
2022/08/09 09:59:43;;;;;;;3.53;3.33;;;26.90;58.70;;;;;;5074492;28;20463;-80
2022/08/09 10:02:10;;;;;;;3.63;3.43;;;27.00;58.90;;;;;;5075020;28;20456;-81
2022/08/09 10:04:38;;;;;;;3.40;3.20;;;27.20;58.10;;;;;;5074461;28;20447;-81
2022/08/09 10:07:05;;;;;;;3.40;3.23;;;27.30;57.30;;;;;;5074726;28;20506;-81
2022/08/09 10:09:48;;;;;;;3.63;3.43;;;27.40;57.70;;;;;;5074940;28;20444;-80
2022/08/09 10:12:26;;;;;;;3.50;3.20;;;27.50;56.50;;;;;;5074227;28;20450;-82
2022/08/09 10:15:03;;;;;;;3.50;3.30;;;27.60;56.30;;;;;;5076289;28;20492;-82
2022/08/09 10:17:32;;;;;;;4.10;3.77;;;27.70;56.80;;;;;;5077982;28;20475;-81
2022/08/09 10:19:59;;;;;;;3.73;3.43;;;27.80;56.10;;;;;;5078162;28;20452;-80
2022/08/09 10:22:30;;;;;;;3.30;3.10;;;27.90;54.50;;;;;;5078342;28;20451;-81
2022/08/09 10:24:58;;;;;;;4.27;2.53;;;28.00;56.10;;;;;;5078278;28;20518;-80
2022/08/09 10:27:26;;;;;;;3.43;3.23;;;28.00;55.10;;;;;;5078356;28;20467;-80
2022/08/09 10:29:53;;;;;;;2.83;2.63;;;28.20;54.60;;;;;;5078303;28;20443;-80
2022/08/09 10:32:20;;;;;;;3.97;3.40;;;28.40;53.10;;;;;;5078557;28;20455;-82
2022/08/09 10:34:48;;;;;;;3.10;2.87;;;28.60;52.90;;;;;;5077891;28;20549;-81
2022/08/09 10:37:15;;;;;;;3.10;2.90;;;28.80;51.30;;;;;;5077910;28;20470;-81
2022/08/09 10:39:42;;;;;;;3.67;3.37;;;29.10;51.90;;;;;;5077723;28;20447;-81
2022/08/09 10:42:08;;;;;;;3.33;3.13;;;29.40;50.60;;;;;;5077818;28;20953;-82
2022/08/09 10:44:38;;;;;;;3.83;3.53;;;29.50;49.50;;;;;;5077932;28;20453;-81
2022/08/09 10:47:33;;;;;;;2.33;2.23;;;29.70;49.50;;;;;;5077647;28;20475;-81
2022/08/09 10:50:06;;;;;;;3.00;2.80;;;29.60;46.70;;;;;;5077586;28;20454;-80
2022/08/09 10:53:04;;;;;;;2.50;2.40;;;29.90;47.80;;;;;;5077550;28;20451;-82
2022/08/09 10:55:32;;;;;;;3.87;3.57;;;29.90;45.00;;;;;;5077328;28;20490;-82
2022/08/09 10:57:59;;;;;;;2.67;2.50;;;30.00;47.40;;;;;;5077507;28;20466;-82
2022/08/09 11:00:39;;;;;;;6.13;2.93;;;30.20;47.00;;;;;;5078785;28;20458;-84
2022/08/09 11:03:21;;;;;;;3.37;3.07;;;30.50;46.20;;;;;;5082353;28;20451;-84
2022/08/09 11:06:23;;;;;;;3.00;2.80;;;30.10;43.80;;;;;;5082478;28;20518;-84
2022/08/09 11:08:50;;;;;;;2.60;2.47;;;30.30;45.80;;;;;;5082534;28;20875;-84
2022/08/09 11:11:18;;;;;;;3.13;2.93;;;30.80;45.50;;;;;;5082235;28;20454;-83
2022/08/09 11:13:45;;;;;;;2.90;2.70;;;31.20;44.00;;;;;;5082569;28;20476;-80
2022/08/09 11:16:33;;;;;;;3.50;3.30;;;31.10;42.30;;;;;;5082312;28;20447;-84
2022/08/09 11:19:00;;;;;;;4.30;3.17;;;31.60;43.00;;;;;;5082471;28;20473;-83
2022/08/09 11:22:00;;;;;;;2.77;2.67;;;31.70;43.00;;;;;;5082354;28;20456;-82
2022/08/09 11:24:27;;;;;;;3.17;2.83;;;32.00;41.10;;;;;;5082246;28;20461;-83
2022/08/09 11:26:54;;;;;;;3.17;3.00;;;32.70;43.50;;;;;;5082505;28;20545;-83
2022/08/09 11:29:52;;;;;;;2.53;2.43;;;33.20;41.20;;;;;;5081921;28;20860;-83
2022/08/09 11:32:49;;;;;;;2.60;2.47;;;33.90;38.70;;;;;;5082394;28;20455;-83
2022/08/09 11:35:18;;;;;;;3.43;3.13;;;34.60;38.20;;;;;;5081997;28;20498;-82
2022/08/09 11:37:47;;;;;;;2.50;2.40;;;34.40;37.80;;;;;;5082220;28;20472;-83
2022/08/09 11:40:15;;;;;;;3.00;2.80;;;34.90;36.70;;;;;;5081910;28;20452;-81
2022/08/09 11:42:47;;;;;;;2.60;2.20;;;35.50;35.60;;;;;;5081807;28;20448;-83
2022/08/09 11:45:22;;;;;;;5.33;3.33;;;35.90;35.80;;;;;;5081840;28;20512;-83
2022/08/09 11:47:51;;;;;;;5.27;2.43;;;36.30;34.70;;;;;;5082062;28;20466;-83
2022/08/09 11:50:19;;;;;;;3.03;2.07;;;36.30;31.80;;;;;;5081903;28;20451;-83
2022/08/09 11:53:18;;;;;;;2.10;1.93;;;36.40;31.60;;;;;;5081903;28;20455;-84
2022/08/09 11:55:45;;;;;;;2.43;2.23;;;36.60;31.70;;;;;;5081575;28;20455;-84
2022/08/09 11:58:43;;;;;;;2.33;1.93;;;36.30;31.30;;;;;;5081549;28;20483;-84
2022/08/09 12:01:11;;;;;;;4.80;2.20;;;36.20;30.70;;;;;;5081296;28;20447;-84
2022/08/09 12:03:40;;;;;;;2.10;2.00;;;36.60;32.20;;;;;;5081348;28;20436;-84
2022/08/09 12:06:16;;;;;;;3.03;1.70;;;37.10;29.90;;;;;;5081371;28;20447;-83
2022/08/09 12:08:50;;;;;;;2.43;2.13;;;37.50;28.90;;;;;;5081164;28;20490;-84
2022/08/09 12:11:19;;;;;;;2.50;2.30;;;38.10;29.70;;;;;;5082163;28;20487;-84
2022/08/09 12:13:48;;;;;;;2.03;1.93;;;38.70;30.70;;;;;;5081971;28;20457;-84
2022/08/09 12:16:17;;;;;;;2.60;2.50;;;39.20;29.10;;;;;;5081575;28;20447;-83
2022/08/09 12:18:47;;;;;;;2.30;2.10;;;39.70;27.70;;;;;;5081668;28;20479;-84
2022/08/09 12:21:25;;;;;;;2.13;2.03;;;40.10;26.80;;;;;;5081452;28;20704;-84
2022/08/09 12:23:52;;;;;;;3.10;1.83;;;40.40;27.00;;;;;;5082871;28;20547;-84
2022/08/09 12:26:19;;;;;;;1.83;1.73;;;40.50;26.00;;;;;;5083138;28;20462;-84
2022/08/09 12:28:50;;;;;;;2.23;2.13;;;40.70;25.40;;;;;;5081509;28;20837;-84
2022/08/09 12:31:23;;;;;;;2.60;2.37;;;40.40;26.10;;;;;;5082858;28;20963;-84
2022/08/09 12:33:51;;;;;;;2.20;2.10;;;40.40;27.00;;;;;;5082231;28;20443;-84
2022/08/09 12:36:18;;;;;;;2.10;2.00;;;39.60;25.30;;;;;;5081860;28;20529;-85
2022/08/09 12:38:45;;;;;;;1.90;1.80;;;39.70;26.90;;;;;;5081446;28;20479;-85
2022/08/09 12:41:12;;;;;;;2.30;2.20;;;40.00;27.30;;;;;;5082856;28;20829;-84
2022/08/09 12:43:40;;;;;;;2.27;2.17;;;40.30;27.00;;;;;;5082988;28;20447;-85
2022/08/09 12:46:08;;;;;;;2.53;2.40;;;40.50;27.30;;;;;;5082517;28;20513;-83
2022/08/09 12:48:35;;;;;;;2.70;2.40;;;40.70;26.30;;;;;;5083110;28;20583;-84
2022/08/09 12:51:04;;;;;;;2.03;1.93;;;41.00;26.20;;;;;;5082383;28;20444;-85
2022/08/09 12:53:33;;;;;;;2.10;2.00;;;41.60;26.80;;;;;;5082466;28;20447;-85
2022/08/09 12:56:09;;;;;;;6.30;2.33;;;41.80;26.20;;;;;;5082252;28;20448;-84
2022/08/09 12:58:36;;;;;;;2.33;1.97;;;42.00;25.70;;;;;;5081094;28;20512;-85